Time;durP1;ratioP1;P1;durP2;ratioP2;P2;SDS_P1;SDS_P2;PMS_P1;PMS_P2;Temp;Humidity;BMP_temperature;BMP_pressure;BME280_temperature;BME280_humidity;BME280_pressure;Samples;Min_cycle;Max_cycle;Signal;HPM_P1;HPM_P2
2023/10/01 00:00:05;;;;;;;26.48;13.02;;;14.90;99.90;;;;;;5072450;28;20432;-71
2023/10/01 00:02:34;;;;;;;17.98;12.35;;;14.90;99.90;;;;;;5059821;28;20100;-69
2023/10/01 00:05:00;;;;;;;26.25;13.32;;;14.90;99.90;;;;;;5067556;28;20113;-71
2023/10/01 00:07:27;;;;;;;24.75;14.57;;;14.90;99.90;;;;;;5071377;28;20499;-70
2023/10/01 00:09:53;;;;;;;22.75;13.43;;;14.90;99.90;;;;;;5072087;28;20113;-69
2023/10/01 00:12:18;;;;;;;25.40;13.25;;;14.90;99.90;;;;;;5058267;28;20036;-70
2023/10/01 00:14:44;;;;;;;21.08;12.48;;;14.80;99.90;;;;;;5072570;28;20060;-70
2023/10/01 00:17:10;;;;;;;21.30;13.07;;;14.80;99.90;;;;;;5073824;28;20495;-70
2023/10/01 00:19:37;;;;;;;21.23;12.73;;;14.70;99.90;;;;;;5060652;28;20572;-69
2023/10/01 00:22:03;;;;;;;23.88;13.30;;;14.70;99.90;;;;;;5070128;28;20101;-70
2023/10/01 00:24:29;;;;;;;22.23;13.40;;;14.70;99.90;;;;;;5071525;28;20041;-70
2023/10/01 00:26:54;;;;;;;21.23;13.25;;;14.60;99.90;;;;;;5059794;28;20049;-71
2023/10/01 00:29:22;;;;;;;22.90;12.82;;;14.60;99.90;;;;;;5053744;28;20071;-69
2023/10/01 00:31:49;;;;;;;24.38;13.95;;;14.60;99.90;;;;;;5070790;28;20581;-69
2023/10/01 00:34:15;;;;;;;22.55;14.02;;;14.60;99.90;;;;;;5070429;28;20049;-70
2023/10/01 00:36:43;;;;;;;24.52;14.00;;;14.60;99.90;;;;;;5064978;28;20075;-70
2023/10/01 00:39:09;;;;;;;25.70;14.13;;;14.50;99.90;;;;;;5071117;28;20499;-70
2023/10/01 00:41:34;;;;;;;24.83;14.15;;;14.50;99.90;;;;;;5071509;28;20037;-69
2023/10/01 00:44:01;;;;;;;22.83;14.00;;;14.50;99.90;;;;;;5062876;28;20411;-71
2023/10/01 00:46:26;;;;;;;21.55;14.02;;;14.50;99.90;;;;;;5053823;28;20459;-69
2023/10/01 00:48:53;;;;;;;22.60;13.57;;;14.50;99.90;;;;;;5070060;28;20165;-70
2023/10/01 00:51:20;;;;;;;20.33;14.02;;;14.50;99.90;;;;;;5067946;28;20487;-71
2023/10/01 00:53:45;;;;;;;23.23;13.38;;;14.50;99.90;;;;;;5056727;28;20056;-70
2023/10/01 00:56:12;;;;;;;23.20;13.70;;;14.60;99.90;;;;;;5070690;28;20032;-71
2023/10/01 00:58:38;;;;;;;26.63;15.25;;;14.60;99.90;;;;;;5069778;28;20040;-69
2023/10/01 01:01:07;;;;;;;26.95;14.95;;;14.50;99.90;;;;;;5066639;28;20085;-70
2023/10/01 01:03:34;;;;;;;22.52;14.73;;;14.60;99.90;;;;;;5062773;28;20403;-70
2023/10/01 01:08:33;;;;;;;22.75;14.35;;;14.70;99.90;;;;;;5067166;28;20043;-70
2023/10/01 01:11:01;;;;;;;22.85;14.70;;;14.70;99.90;;;;;;5064864;28;20114;-69
2023/10/01 01:13:36;;;;;;;25.27;15.68;;;14.70;99.90;;;;;;5070337;28;20041;-70
2023/10/01 01:16:05;;;;;;;24.77;15.00;;;14.70;99.90;;;;;;5069515;28;20040;-70
2023/10/01 01:18:36;;;;;;;26.77;15.30;;;14.70;99.90;;;;;;5061227;28;20170;-69
2023/10/01 01:21:09;;;;;;;21.05;14.57;;;14.70;99.90;;;;;;5069272;28;20029;-70
2023/10/01 01:23:35;;;;;;;24.80;15.13;;;14.80;99.90;;;;;;5050193;28;20053;-70
2023/10/01 01:26:02;;;;;;;25.00;14.75;;;14.70;99.90;;;;;;5048967;28;20051;-70
2023/10/01 01:28:30;;;;;;;25.02;14.65;;;14.70;99.90;;;;;;5067531;28;20548;-70
2023/10/01 01:30:58;;;;;;;23.63;15.15;;;14.70;99.90;;;;;;5055727;28;20041;-70
2023/10/01 01:33:31;;;;;;;22.85;14.98;;;14.70;99.90;;;;;;5047583;28;20403;-71
2023/10/01 01:36:03;;;;;;;25.75;15.18;;;14.70;99.90;;;;;;5060893;28;20041;-72
2023/10/01 01:38:31;;;;;;;25.98;15.40;;;14.70;99.90;;;;;;5072208;28;20132;-72
2023/10/01 01:40:57;;;;;;;24.05;15.57;;;14.70;99.90;;;;;;5075861;28;20078;-71
2023/10/01 01:43:22;;;;;;;23.88;15.07;;;14.70;99.90;;;;;;5063365;28;20040;-71
2023/10/01 01:45:55;;;;;;;24.58;15.32;;;14.80;99.90;;;;;;5064973;28;20041;-72
2023/10/01 01:48:30;;;;;;;25.13;15.30;;;14.80;99.90;;;;;;5056939;28;20048;-71
2023/10/01 01:51:01;;;;;;;27.25;15.02;;;14.80;99.90;;;;;;5055666;28;20419;-72
2023/10/01 01:53:34;;;;;;;27.90;15.18;;;14.80;99.90;;;;;;5073836;28;20049;-71
2023/10/01 01:56:05;;;;;;;26.75;15.52;;;14.80;99.90;;;;;;5059755;28;20033;-72
2023/10/01 01:58:32;;;;;;;28.75;15.70;;;14.80;99.90;;;;;;5054761;28;20398;-72
2023/10/01 02:01:08;;;;;;;24.98;16.00;;;14.80;99.90;;;;;;5060099;28;20041;-72
2023/10/01 02:03:37;;;;;;;23.30;15.57;;;14.80;99.90;;;;;;5063255;28;20499;-72
2023/10/01 02:06:07;;;;;;;25.50;15.68;;;14.80;99.90;;;;;;5055108;28;20040;-72
2023/10/01 02:08:54;;;;;;;26.58;16.15;;;14.80;99.90;;;;;;5052454;28;20049;-72
2023/10/01 02:11:20;;;;;;;26.27;16.40;;;14.70;99.90;;;;;;5065656;28;20403;-72
2023/10/01 02:13:47;;;;;;;24.88;15.68;;;14.70;99.90;;;;;;5075573;28;20044;-72
2023/10/01 02:16:30;;;;;;;26.20;16.83;;;14.70;99.90;;;;;;5071510;28;20036;-72
2023/10/01 02:19:21;;;;;;;27.60;17.35;;;14.70;99.90;;;;;;5075069;28;20491;-72
2023/10/01 02:22:03;;;;;;;25.92;16.42;;;14.70;99.90;;;;;;5063783;28;20041;-72
2023/10/01 02:27:14;;;;;;;26.20;16.73;;;14.80;99.90;;;;;;5070683;28;20044;-71
2023/10/01 02:30:09;;;;;;;25.35;16.95;;;14.80;99.90;;;;;;5073945;28;20064;-72
2023/10/01 02:32:32;;;;;;;27.70;16.45;;;14.70;99.90;;;;;;5061004;28;20041;-71
2023/10/01 02:34:57;;;;;;;28.83;16.77;;;14.80;99.90;;;;;;5068750;28;20033;-72
2023/10/01 02:37:29;;;;;;;28.90;16.77;;;14.70;99.90;;;;;;5071634;28;20058;-72
2023/10/01 02:39:59;;;;;;;22.50;15.55;;;14.70;99.90;;;;;;5073752;28;20029;-71
2023/10/01 02:42:30;;;;;;;26.77;16.98;;;14.70;99.90;;;;;;5061764;28;20044;-71
2023/10/01 02:44:55;;;;;;;26.52;15.63;;;14.70;99.90;;;;;;5072922;28;20041;-71
2023/10/01 02:47:23;;;;;;;28.85;16.17;;;14.70;99.90;;;;;;5054625;28;20492;-72
2023/10/01 02:49:53;;;;;;;28.85;16.38;;;14.70;99.90;;;;;;5056719;28;20071;-72
2023/10/01 02:52:25;;;;;;;27.27;16.02;;;14.80;99.90;;;;;;5072690;28;20062;-71
2023/10/01 02:54:57;;;;;;;23.85;16.30;;;14.70;99.90;;;;;;5073402;28;20041;-71
2023/10/01 02:57:23;;;;;;;25.65;15.85;;;14.70;99.90;;;;;;5067811;28;20051;-70
2023/10/01 03:02:38;;;;;;;30.20;16.15;;;14.70;99.90;;;;;;5053259;28;20510;-69
2023/10/01 03:05:16;;;;;;;25.48;15.32;;;14.70;99.90;;;;;;5051221;28;20083;-69
2023/10/01 03:07:45;;;;;;;26.00;16.58;;;14.70;99.90;;;;;;5062507;28;20482;-70
2023/10/01 03:10:24;;;;;;;23.95;15.52;;;14.70;99.90;;;;;;5073017;28;20111;-70
2023/10/01 03:12:51;;;;;;;25.92;15.85;;;14.70;99.90;;;;;;5071617;28;20084;-69
2023/10/01 03:15:24;;;;;;;26.35;15.65;;;14.70;99.90;;;;;;5064337;28;20047;-70
2023/10/01 03:17:57;;;;;;;25.75;15.43;;;14.70;99.90;;;;;;5072325;28;20115;-70
2023/10/01 03:23:27;;;;;;;25.38;15.70;;;14.70;99.90;;;;;;5054005;28;20499;-70
2023/10/01 03:28:26;;;;;;;23.35;13.82;;;14.70;99.90;;;;;;5064510;28;20403;-70
2023/10/01 03:31:12;;;;;;;27.38;15.18;;;14.70;99.90;;;;;;5059084;28;20048;-71
2023/10/01 03:33:39;;;;;;;26.60;14.90;;;14.70;99.90;;;;;;5061389;28;20380;-71
2023/10/01 03:36:10;;;;;;;31.00;15.45;;;14.70;99.90;;;;;;5062530;28;20041;-71
2023/10/01 03:38:40;;;;;;;22.10;14.27;;;14.70;99.90;;;;;;5053159;28;20041;-67
2023/10/01 03:41:08;;;;;;;24.58;14.50;;;14.70;99.90;;;;;;5068383;28;20042;-70
2023/10/01 03:43:35;;;;;;;24.20;14.07;;;14.70;99.90;;;;;;5072318;28;20048;-71
2023/10/01 03:46:14;;;;;;;23.05;14.32;;;14.70;99.90;;;;;;5071704;28;20442;-71
2023/10/01 03:54:19;;;;;;;23.55;13.18;;;14.70;99.90;;;;;;5070427;28;20507;-72
2023/10/01 03:56:56;;;;;;;26.10;13.90;;;14.70;99.90;;;;;;5059853;28;20032;-72
2023/10/01 03:59:27;;;;;;;21.73;13.50;;;14.70;99.90;;;;;;5062625;28;20080;-71
2023/10/01 04:01:58;;;;;;;25.27;13.43;;;14.70;99.90;;;;;;5072273;28;20051;-71
2023/10/01 04:04:28;;;;;;;23.55;13.68;;;14.80;99.90;;;;;;5063777;28;20041;-71
2023/10/01 04:07:11;;;;;;;22.70;13.35;;;14.70;99.90;;;;;;5065017;28;20166;-71
2023/10/01 04:09:46;;;;;;;21.27;12.63;;;14.80;99.90;;;;;;5064363;28;20044;-70
2023/10/01 04:12:34;;;;;;;22.75;13.60;;;14.70;99.90;;;;;;5066320;28;20045;-70
2023/10/01 04:15:04;;;;;;;20.85;12.77;;;14.70;99.90;;;;;;5062630;28;20043;-70
2023/10/01 04:17:35;;;;;;;23.90;13.52;;;14.70;99.90;;;;;;5061961;28;20487;-69
2023/10/01 04:20:00;;;;;;;21.50;13.23;;;14.70;99.90;;;;;;5063607;28;20029;-71
2023/10/01 04:22:29;;;;;;;23.40;13.18;;;14.80;99.90;;;;;;5064658;28;20278;-69
2023/10/01 04:25:10;;;;;;;24.20;13.10;;;14.80;99.90;;;;;;5064284;28;20138;-70
2023/10/01 04:27:42;;;;;;;23.20;12.97;;;14.70;99.90;;;;;;5049004;28;20072;-69
2023/10/01 04:30:10;;;;;;;21.33;12.57;;;14.80;99.90;;;;;;5054464;28;20063;-69
2023/10/01 04:32:36;;;;;;;22.20;12.93;;;14.80;99.90;;;;;;5066878;28;20037;-70
2023/10/01 04:35:16;;;;;;;25.63;12.88;;;14.70;99.90;;;;;;5051474;28;20037;-70
2023/10/01 04:37:43;;;;;;;22.02;12.40;;;14.80;99.90;;;;;;5055903;28;20032;-70
2023/10/01 04:40:31;;;;;;;25.27;11.80;;;14.80;99.90;;;;;;5064340;28;20033;-70
2023/10/01 04:43:04;;;;;;;21.60;12.13;;;14.80;99.90;;;;;;5070083;28;20049;-70
2023/10/01 04:45:36;;;;;;;21.05;12.38;;;14.80;99.90;;;;;;5061529;28;20037;-70
2023/10/01 04:48:22;;;;;;;22.15;13.25;;;14.80;99.90;;;;;;5069151;28;20126;-70
2023/10/01 04:50:53;;;;;;;20.50;12.07;;;14.80;99.90;;;;;;5064715;28;20047;-69
2023/10/01 04:53:22;;;;;;;19.48;12.48;;;14.80;99.90;;;;;;5066596;28;20500;-70
2023/10/01 04:56:05;;;;;;;23.52;12.93;;;14.80;99.90;;;;;;5061598;28;20076;-70
2023/10/01 04:58:36;;;;;;;27.00;12.43;;;14.70;99.90;;;;;;5063369;28;20040;-70
2023/10/01 05:01:05;;;;;;;22.33;12.55;;;14.70;99.90;;;;;;5071621;28;20037;-69
2023/10/01 05:03:40;;;;;;;22.08;12.30;;;14.80;99.90;;;;;;5056913;28;20045;-70
2023/10/01 05:06:14;;;;;;;22.70;12.48;;;14.80;99.90;;;;;;5066480;28;20119;-70
2023/10/01 05:08:43;;;;;;;17.77;11.20;;;14.80;99.90;;;;;;5073792;28;20033;-71
2023/10/01 05:11:12;;;;;;;20.05;10.60;;;14.80;99.90;;;;;;5064024;28;20040;-71
2023/10/01 05:13:44;;;;;;;21.52;11.65;;;14.80;99.90;;;;;;5072334;28;20517;-71
2023/10/01 05:16:13;;;;;;;;;;;14.90;99.90;;;;;;5075061;28;20548;-71
2023/10/01 05:18:39;;;;;;;18.58;10.65;;;14.90;99.90;;;;;;5065798;28;19916;-71
2023/10/01 05:21:12;;;;;;;21.48;10.30;;;14.80;99.90;;;;;;5060013;28;20069;-68
2023/10/01 05:23:41;;;;;;;18.63;11.27;;;14.80;99.90;;;;;;5075113;28;20150;-71
2023/10/01 05:26:08;;;;;;;21.85;11.45;;;14.80;99.90;;;;;;5075099;28;20049;-71
2023/10/01 05:28:36;;;;;;;20.92;11.50;;;14.80;99.90;;;;;;5065656;28;20049;-71
2023/10/01 05:31:06;;;;;;;20.38;11.57;;;14.80;99.90;;;;;;5068837;28;20044;-71
2023/10/01 05:33:35;;;;;;;22.70;11.60;;;14.80;99.90;;;;;;5063532;28;20044;-71
2023/10/01 05:36:04;;;;;;;22.42;11.27;;;14.80;99.90;;;;;;5060603;28;20036;-72
2023/10/01 05:38:34;;;;;;;20.30;10.80;;;14.80;99.90;;;;;;5058214;28;20047;-72
2023/10/01 05:41:09;;;;;;;23.95;10.98;;;14.80;99.90;;;;;;5061917;28;20072;-71
2023/10/01 05:43:43;;;;;;;21.65;11.43;;;14.80;99.90;;;;;;5060100;28;20049;-71
2023/10/01 05:46:14;;;;;;;18.83;10.98;;;14.80;99.90;;;;;;5060553;28;20253;-71
2023/10/01 05:48:41;;;;;;;18.20;11.02;;;14.80;99.90;;;;;;5056982;28;20041;-71
2023/10/01 05:51:12;;;;;;;20.70;10.50;;;14.80;99.90;;;;;;5057162;28;20064;-70
2023/10/01 05:53:40;;;;;;;19.75;10.75;;;14.80;99.90;;;;;;5055855;28;20102;-70
2023/10/01 05:56:07;;;;;;;18.90;10.55;;;14.80;99.90;;;;;;5056417;28;20512;-70
2023/10/01 05:58:38;;;;;;;21.60;10.57;;;14.90;99.90;;;;;;5058341;28;20495;-70
2023/10/01 06:01:13;;;;;;;18.88;10.38;;;14.90;99.90;;;;;;5060828;28;20037;-70
2023/10/01 06:03:40;;;;;;;21.60;10.38;;;14.90;99.90;;;;;;5061040;28;20488;-69
2023/10/01 06:06:08;;;;;;;20.02;10.30;;;14.90;99.90;;;;;;5058985;28;20086;-70
2023/10/01 06:08:45;;;;;;;19.10;10.63;;;14.90;99.90;;;;;;5055518;28;20037;-71
2023/10/01 06:11:13;;;;;;;19.88;10.90;;;14.90;99.90;;;;;;5061840;28;20040;-70
2023/10/01 06:13:51;;;;;;;21.35;10.27;;;14.90;99.90;;;;;;5058115;28;20074;-71
2023/10/01 06:16:25;;;;;;;18.77;10.57;;;14.90;99.90;;;;;;5045735;28;20043;-71
2023/10/01 06:18:58;;;;;;;21.45;10.52;;;14.90;99.90;;;;;;5058453;28;20040;-70
2023/10/01 06:21:29;;;;;;;21.38;10.98;;;14.90;99.90;;;;;;5057951;28;20055;-70
2023/10/01 06:23:58;;;;;;;17.90;10.57;;;14.90;99.90;;;;;;5058132;28;20102;-70
2023/10/01 06:26:37;;;;;;;19.27;10.35;;;14.90;99.90;;;;;;5051316;28;20033;-70
2023/10/01 06:29:07;;;;;;;20.00;11.13;;;15.00;99.90;;;;;;5059056;28;20526;-70
2023/10/01 06:34:39;;;;;;;19.20;10.50;;;15.00;99.90;;;;;;5021239;28;20045;-69
2023/10/01 06:37:14;;;;;;;17.95;9.88;;;15.00;99.90;;;;;;5052575;28;20056;-69
2023/10/01 06:39:43;;;;;;;19.75;10.38;;;15.00;99.90;;;;;;5056481;28;20133;-69
2023/10/01 06:42:23;;;;;;;18.75;9.70;;;15.00;99.90;;;;;;5055495;28;20044;-69
2023/10/01 06:44:55;;;;;;;20.17;10.47;;;15.10;99.90;;;;;;5056177;28;20048;-69
2023/10/01 06:47:22;;;;;;;17.17;10.45;;;15.10;99.90;;;;;;5057188;28;20076;-66
2023/10/01 06:52:34;;;;;;;20.33;10.88;;;15.10;99.90;;;;;;5055673;28;20056;-69
2023/10/01 06:55:04;;;;;;;21.45;10.30;;;15.20;99.90;;;;;;5060375;28;20033;-69
2023/10/01 06:57:33;;;;;;;20.27;10.73;;;15.20;99.90;;;;;;5068621;28;20040;-69
2023/10/01 07:00:04;;;;;;;17.65;10.35;;;15.20;99.90;;;;;;5053082;28;20033;-68
2023/10/01 07:02:31;;;;;;;20.00;10.07;;;15.20;99.90;;;;;;5060099;28;20037;-69
2023/10/01 07:04:58;;;;;;;17.80;10.05;;;15.20;99.90;;;;;;5067359;28;20078;-68
2023/10/01 07:07:28;;;;;;;16.95;9.80;;;15.20;99.90;;;;;;5066957;28;20036;-70
2023/10/01 07:09:59;;;;;;;20.02;9.23;;;15.20;99.90;;;;;;5067180;28;20098;-71
2023/10/01 07:12:26;;;;;;;19.13;10.00;;;15.20;99.90;;;;;;5067425;28;20483;-71
2023/10/01 07:14:53;;;;;;;18.30;8.93;;;15.30;99.90;;;;;;5069447;28;20120;-69
2023/10/01 07:17:23;;;;;;;21.48;10.07;;;15.30;99.90;;;;;;5063265;28;20051;-71
2023/10/01 07:20:18;;;;;;;15.57;9.05;;;15.30;99.90;;;;;;5072641;28;20032;-71
2023/10/01 07:22:44;;;;;;;21.13;9.05;;;15.40;99.90;;;;;;5072998;28;20045;-71
2023/10/01 07:25:28;;;;;;;18.40;9.48;;;15.50;99.90;;;;;;5067425;28;20032;-70
2023/10/01 07:27:55;;;;;;;18.63;9.82;;;15.50;99.90;;;;;;5072867;28;20048;-70
2023/10/01 07:30:39;;;;;;;16.55;9.35;;;15.60;99.90;;;;;;5072521;28;20551;-71
2023/10/01 07:33:05;;;;;;;19.10;9.55;;;15.60;99.90;;;;;;5068575;28;20040;-69
2023/10/01 07:35:33;;;;;;;18.50;9.95;;;15.60;99.90;;;;;;5062259;28;20118;-71
2023/10/01 07:37:59;;;;;;;16.80;9.85;;;15.70;99.90;;;;;;5054346;28;20484;-71
2023/10/01 07:40:24;;;;;;;18.73;10.43;;;15.80;99.90;;;;;;5064466;28;20086;-70
2023/10/01 07:42:54;;;;;;;17.35;9.85;;;15.80;99.90;;;;;;5070870;28;20037;-69
2023/10/01 07:45:21;;;;;;;18.15;9.10;;;15.90;99.90;;;;;;5071150;28;20102;-70
2023/10/01 07:47:48;;;;;;;20.73;9.57;;;15.90;99.90;;;;;;5055960;28;20082;-70
2023/10/01 07:50:16;;;;;;;20.90;9.80;;;15.90;99.90;;;;;;5055812;28;20056;-70
2023/10/01 07:52:43;;;;;;;17.65;8.98;;;16.00;99.90;;;;;;5064051;28;20044;-69
2023/10/01 07:55:35;;;;;;;21.02;9.48;;;16.00;99.90;;;;;;5064991;28;20078;-70
2023/10/01 08:00:47;;;;;;;17.75;8.90;;;16.20;99.90;;;;;;5068283;28;20048;-69
2023/10/01 08:03:33;;;;;;;18.50;8.98;;;16.30;99.90;;;;;;5069779;28;20067;-70
2023/10/01 08:06:12;;;;;;;17.67;9.15;;;16.40;99.90;;;;;;5053330;28;20076;-69
2023/10/01 08:08:47;;;;;;;14.38;7.68;;;16.60;99.90;;;;;;5069668;28;20146;-71
2023/10/01 08:13:56;;;;;;;16.83;7.80;;;16.70;99.90;;;;;;5071186;28;20492;-71
2023/10/01 08:16:23;;;;;;;16.42;8.43;;;16.60;99.90;;;;;;5058605;28;20116;-71
2023/10/01 08:18:51;;;;;;;18.50;9.02;;;16.60;99.90;;;;;;5071785;28;20040;-70
2023/10/01 08:21:17;;;;;;;17.38;7.63;;;16.50;99.90;;;;;;5071232;28;20078;-71
2023/10/01 08:23:54;;;;;;;17.27;8.40;;;16.60;99.90;;;;;;5061282;28;20067;-69
2023/10/01 08:29:06;;;;;;;16.63;7.82;;;16.60;99.90;;;;;;5070586;28;20080;-69
2023/10/01 08:34:23;;;;;;;15.80;8.43;;;16.70;99.90;;;;;;5046708;28;20739;-71
2023/10/01 08:36:57;;;;;;;17.17;7.65;;;16.70;99.90;;;;;;5065232;28;20411;-68
2023/10/01 08:39:34;;;;;;;19.50;8.18;;;16.70;99.90;;;;;;5061083;28;20052;-71
2023/10/01 08:42:08;;;;;;;14.93;7.47;;;16.80;99.90;;;;;;5057858;28;20040;-69
2023/10/01 08:44:44;;;;;;;16.13;7.63;;;16.80;99.90;;;;;;5060048;28;20044;-68
2023/10/01 08:47:21;;;;;;;16.60;8.13;;;16.90;99.90;;;;;;5057630;28;20487;-69
2023/10/01 08:49:51;;;;;;;15.98;7.57;;;17.00;99.90;;;;;;5061070;28;20048;-70
2023/10/01 08:52:21;;;;;;;18.58;8.30;;;17.10;99.90;;;;;;5067923;28;20507;-69
2023/10/01 08:54:49;;;;;;;16.45;8.05;;;17.10;99.90;;;;;;5061181;28;20048;-70
2023/10/01 08:57:22;;;;;;;14.32;7.22;;;17.20;99.90;;;;;;5058284;28;20048;-70
2023/10/01 08:59:47;;;;;;;17.63;7.35;;;17.20;99.90;;;;;;5066584;28;20051;-69
2023/10/01 09:02:20;;;;;;;16.58;8.40;;;17.30;99.90;;;;;;5062315;28;20040;-70
2023/10/01 09:04:47;;;;;;;13.90;7.53;;;17.40;99.90;;;;;;5058602;28;20143;-70
2023/10/01 09:07:20;;;;;;;17.95;8.15;;;17.60;99.90;;;;;;5064456;28;20059;-69
2023/10/01 09:10:17;;;;;;;16.35;7.70;;;17.70;99.90;;;;;;5064602;28;20037;-70
2023/10/01 09:12:47;;;;;;;14.85;7.18;;;17.90;99.90;;;;;;5044004;28;20135;-70
2023/10/01 09:15:24;;;;;;;20.73;7.85;;;18.00;99.90;;;;;;5067184;28;20037;-70
2023/10/01 09:17:59;;;;;;;16.75;7.82;;;18.10;99.90;;;;;;5066204;28;20123;-71
2023/10/01 09:23:55;;;;;;;14.07;7.57;;;18.10;99.90;;;;;;5055731;28;20178;-71
2023/10/01 09:26:37;;;;;;;15.85;8.10;;;18.10;99.90;;;;;;5070058;28;20490;-70
2023/10/01 09:29:13;;;;;;;16.92;7.68;;;18.10;99.90;;;;;;5061727;28;20049;-71
2023/10/01 09:31:58;;;;;;;15.60;7.50;;;18.10;99.90;;;;;;5063192;28;20072;-71
2023/10/01 09:34:33;;;;;;;15.43;7.50;;;18.00;99.90;;;;;;5069840;28;20049;-72
2023/10/01 09:37:04;;;;;;;17.25;7.68;;;18.00;99.90;;;;;;5065949;28;20128;-70
2023/10/01 09:39:38;;;;;;;17.98;8.13;;;18.10;99.90;;;;;;5062323;28;20029;-70
2023/10/01 09:42:24;;;;;;;18.33;8.40;;;18.10;99.90;;;;;;5071051;28;20028;-70
2023/10/01 09:44:53;;;;;;;17.95;8.23;;;18.20;99.90;;;;;;5071100;28;20036;-70
2023/10/01 09:47:24;;;;;;;16.83;7.82;;;18.20;99.90;;;;;;5058366;28;20050;-70
2023/10/01 09:49:51;;;;;;;18.20;8.05;;;18.30;99.90;;;;;;5069330;28;20051;-70
2023/10/01 09:52:48;;;;;;;15.68;7.72;;;18.30;99.90;;;;;;5071827;28;20128;-71
2023/10/01 09:55:26;;;;;;;19.10;7.75;;;18.40;99.90;;;;;;5065579;28;20047;-67
2023/10/01 09:57:56;;;;;;;20.30;7.85;;;18.40;99.90;;;;;;5064411;28;20040;-67
2023/10/01 10:00:39;;;;;;;20.30;7.82;;;18.50;99.90;;;;;;5071942;28;20041;-65
2023/10/01 10:03:11;;;;;;;15.60;8.00;;;18.70;99.90;;;;;;5070721;28;20051;-68
2023/10/01 10:05:39;;;;;;;18.73;8.00;;;18.80;99.90;;;;;;5066001;28;20369;-67
2023/10/01 10:08:15;;;;;;;15.55;7.63;;;19.00;99.90;;;;;;5056977;28;20041;-68
2023/10/01 10:10:55;;;;;;;16.77;7.68;;;19.10;99.90;;;;;;5055085;28;20037;-68
2023/10/01 10:13:48;;;;;;;18.42;7.82;;;19.10;99.90;;;;;;5059288;28;20032;-68
2023/10/01 10:16:31;;;;;;;14.40;7.10;;;19.20;99.90;;;;;;5061774;28;20119;-68
2023/10/01 10:19:20;;;;;;;18.33;8.02;;;19.20;99.90;;;;;;5060590;28;20082;-71
2023/10/01 10:24:37;;;;;;;15.50;7.40;;;19.40;99.90;;;;;;5060125;28;20063;-71
2023/10/01 10:27:10;;;;;;;15.63;7.70;;;19.40;99.90;;;;;;5061062;28;20083;-69
2023/10/01 10:29:57;;;;;;;16.55;7.30;;;19.50;99.90;;;;;;5059795;28;20043;-68
2023/10/01 10:32:26;;;;;;;17.02;8.45;;;19.50;99.90;;;;;;5064270;28;20090;-69
2023/10/01 10:35:04;;;;;;;19.00;8.05;;;19.50;99.90;;;;;;5065071;28;20090;-67
2023/10/01 10:37:41;;;;;;;18.25;9.25;;;19.40;99.90;;;;;;5059690;28;20029;-68
2023/10/01 10:42:57;;;;;;;14.85;7.60;;;19.60;99.90;;;;;;5056478;28;20048;-68
2023/10/01 10:45:46;;;;;;;18.48;8.70;;;19.60;99.90;;;;;;5054975;28;20041;-68
2023/10/01 10:48:16;;;;;;;16.95;8.40;;;19.70;99.90;;;;;;5069871;28;20503;-69
2023/10/01 10:50:53;;;;;;;18.60;8.55;;;19.70;99.90;;;;;;5073839;28;20079;-68
2023/10/01 10:53:39;;;;;;;16.60;8.40;;;19.80;99.90;;;;;;5058454;28;20053;-68
2023/10/01 10:56:14;;;;;;;21.40;8.70;;;19.90;99.90;;;;;;5069771;28;20444;-68
2023/10/01 10:59:01;;;;;;;16.90;7.63;;;20.20;99.90;;;;;;5053322;28;20068;-70
2023/10/01 11:01:44;;;;;;;15.02;7.68;;;20.40;99.90;;;;;;5053775;28;20578;-68
2023/10/01 11:04:11;;;;;;;20.00;7.40;;;20.70;99.90;;;;;;5063398;28;20078;-67
2023/10/01 11:06:42;;;;;;;16.88;8.18;;;20.80;99.90;;;;;;5059630;28;20487;-67
2023/10/01 11:09:25;;;;;;;;;;;20.90;99.90;;;;;;5061893;28;20105;-67
2023/10/01 11:12:04;;;;;;;16.02;8.32;;;20.90;99.90;;;;;;5062015;28;19991;-67
2023/10/01 11:14:30;;;;;;;20.48;8.48;;;20.90;99.90;;;;;;5072833;28;20466;-68
2023/10/01 11:16:56;;;;;;;14.85;7.70;;;20.90;99.90;;;;;;5072816;28;20037;-68
2023/10/01 11:19:28;;;;;;;16.52;7.75;;;20.90;99.90;;;;;;5056152;28;20025;-68
2023/10/01 11:21:58;;;;;;;17.50;8.23;;;21.00;99.90;;;;;;5066523;28;20105;-70
2023/10/01 11:24:31;;;;;;;18.03;7.93;;;21.10;99.90;;;;;;5072911;28;20428;-71
2023/10/01 11:27:22;;;;;;;22.65;7.68;;;21.30;99.90;;;;;;5058225;28;20107;-71
2023/10/01 11:30:13;;;;;;;15.85;7.25;;;21.40;99.90;;;;;;5054501;28;20056;-68
2023/10/01 11:32:58;;;;;;;16.55;7.57;;;21.50;99.90;;;;;;5065164;28;20036;-68
2023/10/01 11:35:33;;;;;;;16.27;7.13;;;21.50;99.90;;;;;;5071638;28;20209;-71
2023/10/01 11:38:13;;;;;;;16.33;7.90;;;21.60;99.90;;;;;;5059268;28;20036;-71
2023/10/01 11:43:35;;;;;;;17.50;7.10;;;21.70;99.90;;;;;;5053104;28;20040;-71
2023/10/01 11:46:24;;;;;;;15.30;7.50;;;21.70;99.90;;;;;;5060593;28;20081;-71
2023/10/01 11:49:28;;;;;;;15.90;7.10;;;21.70;99.90;;;;;;5066493;28;20333;-71
2023/10/01 11:52:02;;;;;;;14.18;6.80;;;21.60;99.90;;;;;;5053274;28;20059;-70
2023/10/01 11:54:45;;;;;;;16.67;7.38;;;21.50;99.90;;;;;;5057715;28;20242;-71
2023/10/01 11:57:25;;;;;;;15.80;6.95;;;21.60;99.90;;;;;;5062017;28;20032;-71
2023/10/01 12:00:01;;;;;;;14.82;6.82;;;21.70;99.90;;;;;;5056667;28;20041;-71
2023/10/01 12:02:32;;;;;;;13.38;6.40;;;21.80;99.90;;;;;;5066927;28;20376;-71
2023/10/01 12:05:02;;;;;;;16.60;6.55;;;21.80;99.90;;;;;;5071778;28;20510;-71
2023/10/01 12:07:33;;;;;;;14.20;6.78;;;21.90;99.90;;;;;;5065093;28;20498;-69
2023/10/01 12:10:04;;;;;;;15.98;6.18;;;21.90;99.90;;;;;;5067156;28;20142;-69
2023/10/01 12:12:39;;;;;;;16.90;7.05;;;21.90;99.90;;;;;;5070526;28;20052;-69
2023/10/01 12:17:51;;;;;;;12.27;5.78;;;22.20;99.90;;;;;;5052465;28;20049;-68
2023/10/01 12:20:23;;;;;;;16.42;7.07;;;22.30;99.90;;;;;;5063334;28;20071;-70
2023/10/01 12:23:11;;;;;;;15.65;6.43;;;22.30;99.90;;;;;;5066447;28;20040;-68
2023/10/01 12:28:28;;;;;;;14.25;6.50;;;22.30;99.90;;;;;;5061468;28;20037;-70
2023/10/01 12:30:57;;;;;;;14.02;7.00;;;22.40;99.90;;;;;;5060773;28;20048;-71
2023/10/01 12:33:46;;;;;;;13.70;6.53;;;22.40;99.90;;;;;;5061154;28;20036;-69
2023/10/01 12:36:32;;;;;;;13.82;6.43;;;22.40;99.90;;;;;;5069488;28;20406;-69
2023/10/01 12:41:47;;;;;;;14.80;7.10;;;22.60;99.90;;;;;;5066874;28;20060;-69
2023/10/01 12:44:25;;;;;;;10.10;5.85;;;22.60;99.90;;;;;;5060494;28;20380;-69
2023/10/01 12:47:14;;;;;;;12.02;6.30;;;22.70;99.90;;;;;;5071045;28;20040;-69
2023/10/01 12:49:42;;;;;;;11.48;5.28;;;22.80;99.90;;;;;;5067842;28;20047;-69
2023/10/01 12:52:14;;;;;;;12.50;5.80;;;22.90;99.90;;;;;;5066494;28;20090;-70
2023/10/01 12:54:41;;;;;;;14.77;6.20;;;22.90;99.90;;;;;;5071561;28;20131;-69
2023/10/01 12:57:12;;;;;;;14.02;6.30;;;22.90;99.90;;;;;;5068557;28;20041;-69
2023/10/01 12:59:44;;;;;;;13.10;6.00;;;23.00;99.90;;;;;;5057950;28;20059;-70
2023/10/01 13:02:22;;;;;;;16.85;6.07;;;23.00;99.90;;;;;;5068232;28;20153;-69
2023/10/01 13:05:16;;;;;;;11.90;5.45;;;23.00;99.90;;;;;;5071552;28;20041;-69
2023/10/01 13:07:41;;;;;;;11.07;5.47;;;23.00;99.90;;;;;;5052550;28;20117;-69
2023/10/01 13:10:07;;;;;;;12.43;5.53;;;23.00;99.90;;;;;;5067403;28;20044;-68
2023/10/01 13:12:39;;;;;;;10.10;4.90;;;23.10;99.90;;;;;;5071325;28;20101;-69
2023/10/01 13:15:14;;;;;;;11.73;5.38;;;23.00;99.90;;;;;;5067540;28;20051;-69
2023/10/01 13:17:43;;;;;;;13.75;5.50;;;23.00;99.90;;;;;;5062745;28;20048;-69
2023/10/01 13:20:22;;;;;;;15.88;6.10;;;22.90;99.90;;;;;;5070927;28;20041;-69
2023/10/01 13:22:52;;;;;;;17.60;5.22;;;22.90;99.90;;;;;;5059078;28;20128;-69
2023/10/01 13:25:23;;;;;;;11.63;5.40;;;22.90;99.90;;;;;;5067443;28;20115;-69
2023/10/01 13:28:01;;;;;;;12.80;5.60;;;22.80;99.90;;;;;;5071001;28;20082;-70
2023/10/01 13:30:28;;;;;;;13.48;5.22;;;22.90;99.90;;;;;;5071105;28;20123;-69
2023/10/01 13:35:50;;;;;;;11.38;5.55;;;22.90;99.90;;;;;;5065559;28;20460;-69
2023/10/01 14:11:06;;;;;;;12.00;5.40;;;23.20;99.90;;;;;;5074427;28;20189;-69
2023/10/01 14:13:35;;;;;;;11.15;5.03;;;23.30;99.90;;;;;;5069727;28;20515;-71
2023/10/01 14:16:11;;;;;;;11.85;5.15;;;23.40;99.90;;;;;;5063219;28;20510;-67
2023/10/01 14:18:40;;;;;;;13.30;5.22;;;23.50;99.90;;;;;;5066620;28;20063;-68
2023/10/01 14:21:13;;;;;;;10.98;5.30;;;23.50;99.90;;;;;;5073922;28;20032;-66
2023/10/01 14:23:42;;;;;;;11.05;5.30;;;23.50;99.90;;;;;;5061598;28;20040;-67
2023/10/01 14:26:13;;;;;;;10.35;4.88;;;23.40;99.90;;;;;;5070440;28;20064;-66
2023/10/01 14:28:39;;;;;;;13.63;5.35;;;23.20;99.90;;;;;;5071244;28;20052;-71
2023/10/01 14:31:05;;;;;;;11.15;5.57;;;23.20;99.90;;;;;;5056502;28;20402;-69